• Join FlightAware (Why Join?)
  • Login
  • US Flag 
01:38AM EDT


 

Airport Tracker/Info


-or-


 

Live Flight TrackerFlight Track Log ✈ SWA1969 ✈ 23-Oct-2013 ✈ KBWI - KPVD

Flight Track Log - Related Links

Times and Time Zones

All times are in EDT time to prevent confusion due to time zone crossing. See the SWA1969 flight status page for this flight to view local times or setup timezone preferences in your user account.

Time Position Orientation Groundspeed Altitude Reporting Facility
EDT Latitude Longitude Course Direction KTS MPH feet Rate Location/Type
06:59AM 39.1667 -76.7167 123° Southeast 176 203 2,100  Level Potomac TRACON
07:00AM 39.1500 -76.6833 123° Southeast 204 235 4,000 2,640 Climbing Potomac TRACON
07:02AM 39.1472 -76.5364 91° East 241 277 9,400 2,820 Climbing Washington Center
07:03AM 39.1481 -76.4428 89° East 252 290 12,100 2,340 Climbing Washington Center
07:04AM 39.1467 -76.3169 91° East 300 345 14,200 2,580 Climbing Washington Center
07:05AM 39.1536 -76.1883 86° East 338 389 17,300 2,820 Climbing Washington Center
07:06AM 39.2292 -76.0525 54° Northeast 361 415 19,900 2,220 Climbing Washington Center
07:07AM 39.3089 -75.9269 51° Northeast 400 460 21,800 2,160 Climbing Washington Center
07:08AM 39.3989 -75.7931 49° Northeast 465 535 24,200 2,220 Climbing Washington Center
07:09AM 39.4886 -75.6506 51° Northeast 480 552 26,300 2,460 Climbing Washington Center
07:10AM 39.5822 -75.5028 51° Northeast 507 583 29,200 2,280 Climbing Washington Center
07:11AM 39.6736 -75.3597 50° Northeast 514 592 31,000 720 Climbing Washington Center
07:12AM 39.8008 -75.1481 52° Northeast 528 608 31,000  Level New York Center
07:13AM 39.8939 -74.9997 51° Northeast 528 608 31,000  Level New York Center
07:14AM 39.9758 -74.8667 51° Northeast 528 608 31,000  Level New York Center
07:15AM 40.0689 -74.7011 54° Northeast 523 602 31,000  Level New York Center
07:16AM 40.1328 -74.5336 63° Northeast 517 595 31,000  Level New York Center
07:17AM 40.1878 -74.3736 66° East 520 598 31,000  Level New York Center
07:18AM 40.2492 -74.2000 65° Northeast 520 598 31,000  Level New York Center
07:19AM 40.3125 -74.0264 64° Northeast 520 598 31,000 -480 Level New York Center
07:21AM 40.4294 -73.7136 64° Northeast 524 603 29,700 -1,320 Descending Boston Center
07:22AM 40.4847 -73.5567 65° Northeast 523 602 27,400 -1,320 Descending Boston Center
07:23AM 40.5456 -73.3869 65° Northeast 514 592 27,000 -540 Descending Boston Center
07:24AM 40.6061 -73.2175 65° Northeast 514 592 26,400 -840 Descending Boston Center
07:25AM 40.6667 -73.0458 65° Northeast 519 597 25,400 -1,260 Descending Boston Center
07:26AM 40.7386 -72.8386 65° Northeast 519 597 23,900 -1,800 Descending Boston Center
07:27AM 40.7933 -72.6775 66° East 507 583 21,800 -2,160 Descending Boston Center
07:28AM 40.8500 -72.5133 65° Northeast 498 573 19,600 -2,220 Descending Boston Center
07:29AM 40.9058 -72.3514 65° Northeast 472 543 17,400 -2,280 Descending Boston Center
07:30AM 40.9675 -72.1753 65° Northeast 440 506 14,800 -2,340 Descending Boston Center
07:31AM 40.9875 -72.1225 63° Northeast 429 494 13,900 -1,980 Descending Boston Center
07:31AM 41.0056 -72.0597 69° East 431 496 13,000 -2,040 Descending Boston Center
07:32AM 41.0331 -71.9794 66° East 405 466 11,800 -1,860 Descending Boston Center
07:32AM 41.0511 -71.9247 66° East 406 467 11,100 -1,440 Descending Boston Center
07:33AM 41.0972 -71.8714 41° Northeast 356 410 10,400 -900 Descending Boston Center
07:33AM 41.1297 -71.8456 31° Northeast 358 412 10,200 -780 Descending Boston Center
07:34AM 41.1781 -71.8156 25° Northeast 311 358 9,600 -1,080 Descending Boston Center
07:34AM 41.2097 -71.7944 27° Northeast 323 372 9,100 -1,320 Descending Boston Center
07:35AM 41.2600 -71.7656 23° Northeast 309 356 8,300 -1,620 Descending Boston Center
07:35AM 41.2975 -71.7369 30° Northeast 308 354 7,500 -1,500 Descending Boston Center
07:36AM 41.3283 -71.7189 24° Northeast 302 348 7,000 -1,200 Descending Boston Center
07:36AM 41.3722 -71.6894 27° Northeast 300 345 6,300 -1,320 Descending Boston Center
07:37AM 41.4008 -71.6708 26° Northeast 286 329 5,700 -1,140 Descending Boston Center
07:37AM 41.4419 -71.6433 27° Northeast 286 329 5,200 -720 Descending Boston Center
07:38AM 41.4711 -71.6247 26° Northeast 272 313 5,000 -540 Descending Boston Center
07:38AM 41.5058 -71.6022 26° Northeast 263 303 4,700 -840 Descending Boston Center
07:39AM 41.5331 -71.5869 23° Northeast 229 264 4,200 -1,140 Descending Boston Center
07:39AM 41.5658 -71.5606 31° Northeast 239 275 3,600 -1,200 Descending Boston Center
07:40AM 41.5853 -71.5428 34° Northeast 222 255 3,000 -1,200 Descending Boston Center
07:40AM 41.6150 -71.5181 32° Northeast 221 254 2,400 -1,020 Descending Boston Center
07:41AM 41.6319 -71.5053 29° Northeast 199 229 2,000 -1,020 Descending Boston Center
07:41AM 41.6572 -71.4839 32° Northeast 193 222 1,400 -900 Descending Boston Center
07:42AM 41.6703 -71.4761 24° Northeast 153 176 1,100 -660 Descending Boston Center
07:42AM 41.6956 -71.4575 29° Northeast 175 201 700 -660 Descending Boston Center
07:43AM 41.7022 -71.4472 49° Northeast 125 144 400 -540 Descending Boston Center
07:43AM 41.7308 -71.4292 25° Northeast 160 184 200 -360 Descending Boston Center
07:45AM 41.7240 -71.4282 174° South  Level Estimated
07:52AM 41.7240 -71.4282 226° Southwest  Level Estimated
07:53AM 41.7240 -71.4282 226° Southwest  Level Estimated